Terminal Aerodrome Forecast
Issued by NWS

Home | Current Version | Previous Version | Graphics & Text | Print | Product List | Glossary On
Versions: 1 2 3 4 5 6 7 8 9 10 11 12 13 14 15 16 17
000
FTUS43 KGRB 181100
TAFATW
TAF
KATW 181128Z 1812/1912 03009KT P6SM OVC010
     FM181700 05007KT P6SM BKN020
     FM182100 06005KT P6SM SCT030
     FM190200 10003KT P6SM SKC=

USA.gov is the U.S. government's official web portal to all federal, state and local government web resources and services.